sensor_id;sensor_type;location;lat;lon;timestamp;temperature;humidity
20398;DHT22;10358;49.590;11.030;2022-11-28T00:00:55;3.40;99.90
20398;DHT22;10358;49.590;11.030;2022-11-28T00:03:20;3.40;99.90
20398;DHT22;10358;49.590;11.030;2022-11-28T00:05:47;3.40;99.90
20398;DHT22;10358;49.590;11.030;2022-11-28T00:08:12;3.50;99.90
20398;DHT22;10358;49.590;11.030;2022-11-28T00:10:39;3.50;99.90
20398;DHT22;10358;49.590;11.030;2022-11-28T00:13:05;3.40;99.90
20398;DHT22;10358;49.590;11.030;2022-11-28T00:15:31;3.40;99.90
20398;DHT22;10358;49.590;11.030;2022-11-28T00:17:57;3.40;99.90
20398;DHT22;10358;49.590;11.030;2022-11-28T00:20:23;3.40;99.90
20398;DHT22;10358;49.590;11.030;2022-11-28T00:22:48;3.40;99.90
20398;DHT22;10358;49.590;11.030;2022-11-28T00:25:14;3.40;99.90
20398;DHT22;10358;49.590;11.030;2022-11-28T00:27:40;3.40;99.90
20398;DHT22;10358;49.590;11.030;2022-11-28T00:30:06;3.40;99.90
20398;DHT22;10358;49.590;11.030;2022-11-28T00:32:31;3.40;99.90
20398;DHT22;10358;49.590;11.030;2022-11-28T00:34:57;3.40;99.90
20398;DHT22;10358;49.590;11.030;2022-11-28T00:37:22;3.50;99.90
20398;DHT22;10358;49.590;11.030;2022-11-28T00:39:48;3.50;99.90
20398;DHT22;10358;49.590;11.030;2022-11-28T00:42:14;3.50;99.90
20398;DHT22;10358;49.590;11.030;2022-11-28T00:44:40;3.40;99.90
20398;DHT22;10358;49.590;11.030;2022-11-28T00:47:06;3.40;99.90
20398;DHT22;10358;49.590;11.030;2022-11-28T00:49:32;3.40;99.90
20398;DHT22;10358;49.590;11.030;2022-11-28T00:51:57;3.40;99.90
20398;DHT22;10358;49.590;11.030;2022-11-28T00:54:23;3.40;99.90
20398;DHT22;10358;49.590;11.030;2022-11-28T00:56:48;3.30;99.90
20398;DHT22;10358;49.590;11.030;2022-11-28T00:59:14;3.20;99.90
20398;DHT22;10358;49.590;11.030;2022-11-28T01:01:41;3.20;99.90
20398;DHT22;10358;49.590;11.030;2022-11-28T01:04:09;3.20;99.90
20398;DHT22;10358;49.590;11.030;2022-11-28T01:06:38;3.20;99.90
20398;DHT22;10358;49.590;11.030;2022-11-28T01:09:07;3.20;99.90
20398;DHT22;10358;49.590;11.030;2022-11-28T01:11:33;3.20;99.90
20398;DHT22;10358;49.590;11.030;2022-11-28T01:14:00;3.20;99.90
20398;DHT22;10358;49.590;11.030;2022-11-28T01:16:26;3.20;99.90
20398;DHT22;10358;49.590;11.030;2022-11-28T01:18:52;3.20;99.90
20398;DHT22;10358;49.590;11.030;2022-11-28T01:21:18;3.20;99.90
20398;DHT22;10358;49.590;11.030;2022-11-28T01:23:44;3.20;99.90
20398;DHT22;10358;49.590;11.030;2022-11-28T01:26:16;3.20;99.90
20398;DHT22;10358;49.590;11.030;2022-11-28T01:28:41;3.20;99.90
20398;DHT22;10358;49.590;11.030;2022-11-28T01:31:09;3.20;99.90
20398;DHT22;10358;49.590;11.030;2022-11-28T01:33:35;3.20;99.90
20398;DHT22;10358;49.590;11.030;2022-11-28T01:36:01;3.20;99.90
20398;DHT22;10358;49.590;11.030;2022-11-28T01:38:27;3.20;99.90
20398;DHT22;10358;49.590;11.030;2022-11-28T01:40:53;3.20;99.90
20398;DHT22;10358;49.590;11.030;2022-11-28T01:43:20;3.20;99.90
20398;DHT22;10358;49.590;11.030;2022-11-28T01:45:45;3.20;99.90
20398;DHT22;10358;49.590;11.030;2022-11-28T01:48:14;3.20;99.90
20398;DHT22;10358;49.590;11.030;2022-11-28T01:50:41;3.20;99.90
20398;DHT22;10358;49.590;11.030;2022-11-28T01:53:09;3.20;99.90
20398;DHT22;10358;49.590;11.030;2022-11-28T01:55:41;3.20;99.90
20398;DHT22;10358;49.590;11.030;2022-11-28T01:58:08;3.20;99.90
20398;DHT22;10358;49.590;11.030;2022-11-28T02:00:34;3.20;99.90
20398;DHT22;10358;49.590;11.030;2022-11-28T02:03:04;3.20;99.90
20398;DHT22;10358;49.590;11.030;2022-11-28T02:05:31;3.20;99.90
20398;DHT22;10358;49.590;11.030;2022-11-28T02:07:57;3.20;99.90
20398;DHT22;10358;49.590;11.030;2022-11-28T02:10:26;3.20;99.90
20398;DHT22;10358;49.590;11.030;2022-11-28T02:15:39;3.20;99.90
20398;DHT22;10358;49.590;11.030;2022-11-28T02:21:33;3.30;99.90
20398;DHT22;10358;49.590;11.030;2022-11-28T02:27:14;3.30;99.90
20398;DHT22;10358;49.590;11.030;2022-11-28T02:30:10;3.30;99.90
20398;DHT22;10358;49.590;11.030;2022-11-28T02:35:34;3.40;99.90
20398;DHT22;10358;49.590;11.030;2022-11-28T02:38:21;3.40;99.90
20398;DHT22;10358;49.590;11.030;2022-11-28T02:44:22;3.40;99.90
20398;DHT22;10358;49.590;11.030;2022-11-28T02:47:03;3.40;99.90
20398;DHT22;10358;49.590;11.030;2022-11-28T02:53:01;3.40;99.90
20398;DHT22;10358;49.590;11.030;2022-11-28T02:55:06;3.40;99.90
20398;DHT22;10358;49.590;11.030;2022-11-28T02:57:46;3.40;99.90
20398;DHT22;10358;49.590;11.030;2022-11-28T03:00:25;3.40;99.90
20398;DHT22;10358;49.590;11.030;2022-11-28T03:06:02;3.40;99.90
20398;DHT22;10358;49.590;11.030;2022-11-28T03:11:22;3.50;99.90
20398;DHT22;10358;49.590;11.030;2022-11-28T03:13:57;3.60;99.90
20398;DHT22;10358;49.590;11.030;2022-11-28T03:16:42;3.60;99.90
20398;DHT22;10358;49.590;11.030;2022-11-28T03:19:53;3.60;99.90
20398;DHT22;10358;49.590;11.030;2022-11-28T03:22:58;3.60;99.90
20398;DHT22;10358;49.590;11.030;2022-11-28T03:25:40;3.60;99.90
20398;DHT22;10358;49.590;11.030;2022-11-28T03:28:18;3.70;99.90
20398;DHT22;10358;49.590;11.030;2022-11-28T03:30:58;3.70;99.90
20398;DHT22;10358;49.590;11.030;2022-11-28T03:33:27;3.70;99.90
20398;DHT22;10358;49.590;11.030;2022-11-28T03:36:07;3.70;99.90
20398;DHT22;10358;49.590;11.030;2022-11-28T03:38:38;3.70;99.90
20398;DHT22;10358;49.590;11.030;2022-11-28T03:41:13;3.70;99.90
20398;DHT22;10358;49.590;11.030;2022-11-28T03:43:45;3.70;99.90
20398;DHT22;10358;49.590;11.030;2022-11-28T03:46:14;3.70;99.90
20398;DHT22;10358;49.590;11.030;2022-11-28T03:48:45;3.70;99.90
20398;DHT22;10358;49.590;11.030;2022-11-28T03:51:16;3.70;99.90
20398;DHT22;10358;49.590;11.030;2022-11-28T03:54:06;3.70;99.90
20398;DHT22;10358;49.590;11.030;2022-11-28T03:59:15;3.70;99.90
20398;DHT22;10358;49.590;11.030;2022-11-28T04:07:33;3.70;99.90
20398;DHT22;10358;49.590;11.030;2022-11-28T04:12:57;3.70;99.90
20398;DHT22;10358;49.590;11.030;2022-11-28T04:21:06;3.80;99.90
20398;DHT22;10358;49.590;11.030;2022-11-28T04:23:35;3.80;99.90
20398;DHT22;10358;49.590;11.030;2022-11-28T04:26:14;3.80;99.90
20398;DHT22;10358;49.590;11.030;2022-11-28T04:28:43;3.80;99.90
20398;DHT22;10358;49.590;11.030;2022-11-28T04:31:11;3.80;99.90
20398;DHT22;10358;49.590;11.030;2022-11-28T04:33:39;3.90;99.90
20398;DHT22;10358;49.590;11.030;2022-11-28T04:36:07;3.90;99.90
20398;DHT22;10358;49.590;11.030;2022-11-28T04:38:34;3.80;99.90
20398;DHT22;10358;49.590;11.030;2022-11-28T04:41:09;3.80;99.90
20398;DHT22;10358;49.590;11.030;2022-11-28T04:43:50;3.80;99.90
20398;DHT22;10358;49.590;11.030;2022-11-28T04:46:22;3.80;99.90
20398;DHT22;10358;49.590;11.030;2022-11-28T04:48:51;3.70;99.90
20398;DHT22;10358;49.590;11.030;2022-11-28T04:54:08;3.70;99.90
20398;DHT22;10358;49.590;11.030;2022-11-28T04:56:48;3.70;99.90
20398;DHT22;10358;49.590;11.030;2022-11-28T04:59:15;3.70;99.90
20398;DHT22;10358;49.590;11.030;2022-11-28T05:01:43;3.70;99.90
20398;DHT22;10358;49.590;11.030;2022-11-28T05:04:11;3.70;99.90
20398;DHT22;10358;49.590;11.030;2022-11-28T05:06:37;3.70;99.90
20398;DHT22;10358;49.590;11.030;2022-11-28T05:09:03;3.70;99.90
20398;DHT22;10358;49.590;11.030;2022-11-28T05:11:29;3.70;99.90
20398;DHT22;10358;49.590;11.030;2022-11-28T05:13:55;3.70;99.90
20398;DHT22;10358;49.590;11.030;2022-11-28T05:16:21;3.70;99.90
20398;DHT22;10358;49.590;11.030;2022-11-28T05:18:47;3.70;99.90
20398;DHT22;10358;49.590;11.030;2022-11-28T05:21:13;3.60;99.90
20398;DHT22;10358;49.590;11.030;2022-11-28T05:23:43;3.60;99.90
20398;DHT22;10358;49.590;11.030;2022-11-28T05:26:14;3.50;99.90
20398;DHT22;10358;49.590;11.030;2022-11-28T05:28:43;3.60;99.90
20398;DHT22;10358;49.590;11.030;2022-11-28T05:31:09;3.60;99.90
20398;DHT22;10358;49.590;11.030;2022-11-28T05:33:35;3.60;99.90
20398;DHT22;10358;49.590;11.030;2022-11-28T05:36:06;3.60;99.90
20398;DHT22;10358;49.590;11.030;2022-11-28T05:38:32;3.60;99.90
20398;DHT22;10358;49.590;11.030;2022-11-28T05:40:59;3.50;99.90
20398;DHT22;10358;49.590;11.030;2022-11-28T05:43:25;3.50;99.90
20398;DHT22;10358;49.590;11.030;2022-11-28T05:45:51;3.50;99.90
20398;DHT22;10358;49.590;11.030;2022-11-28T05:48:17;3.50;99.90
20398;DHT22;10358;49.590;11.030;2022-11-28T05:50:42;3.60;99.90
20398;DHT22;10358;49.590;11.030;2022-11-28T05:53:08;3.60;99.90
20398;DHT22;10358;49.590;11.030;2022-11-28T05:55:34;3.60;99.90
20398;DHT22;10358;49.590;11.030;2022-11-28T05:58:01;3.60;99.90
20398;DHT22;10358;49.590;11.030;2022-11-28T06:00:26;3.60;99.90
20398;DHT22;10358;49.590;11.030;2022-11-28T06:02:52;3.60;99.90
20398;DHT22;10358;49.590;11.030;2022-11-28T06:05:17;3.60;99.90
20398;DHT22;10358;49.590;11.030;2022-11-28T06:07:43;3.60;99.90
20398;DHT22;10358;49.590;11.030;2022-11-28T06:10:09;3.70;99.90
20398;DHT22;10358;49.590;11.030;2022-11-28T06:12:34;3.70;99.90
20398;DHT22;10358;49.590;11.030;2022-11-28T06:15:00;3.70;99.90
20398;DHT22;10358;49.590;11.030;2022-11-28T06:17:25;3.70;99.90
20398;DHT22;10358;49.590;11.030;2022-11-28T06:19:51;3.80;99.90
20398;DHT22;10358;49.590;11.030;2022-11-28T06:22:16;3.80;99.90
20398;DHT22;10358;49.590;11.030;2022-11-28T06:24:42;3.80;99.90
20398;DHT22;10358;49.590;11.030;2022-11-28T06:27:08;3.80;99.90
20398;DHT22;10358;49.590;11.030;2022-11-28T06:29:33;3.80;99.90
20398;DHT22;10358;49.590;11.030;2022-11-28T06:31:59;3.80;99.90
20398;DHT22;10358;49.590;11.030;2022-11-28T06:34:25;3.80;99.90
20398;DHT22;10358;49.590;11.030;2022-11-28T06:36:51;3.80;99.90
20398;DHT22;10358;49.590;11.030;2022-11-28T06:39:16;3.80;99.90
20398;DHT22;10358;49.590;11.030;2022-11-28T06:41:42;3.80;99.90
20398;DHT22;10358;49.590;11.030;2022-11-28T06:44:12;3.80;99.90
20398;DHT22;10358;49.590;11.030;2022-11-28T06:46:38;3.90;99.90
20398;DHT22;10358;49.590;11.030;2022-11-28T06:49:03;3.80;99.90
20398;DHT22;10358;49.590;11.030;2022-11-28T06:51:29;3.80;99.90
20398;DHT22;10358;49.590;11.030;2022-11-28T06:53:55;3.80;99.90
20398;DHT22;10358;49.590;11.030;2022-11-28T06:56:20;3.80;99.90
20398;DHT22;10358;49.590;11.030;2022-11-28T06:58:51;3.80;99.90
20398;DHT22;10358;49.590;11.030;2022-11-28T07:01:19;3.80;99.90
20398;DHT22;10358;49.590;11.030;2022-11-28T07:03:46;3.90;99.90
20398;DHT22;10358;49.590;11.030;2022-11-28T07:06:13;3.80;99.90
20398;DHT22;10358;49.590;11.030;2022-11-28T07:08:39;3.80;99.90
20398;DHT22;10358;49.590;11.030;2022-11-28T07:11:39;3.80;99.90
20398;DHT22;10358;49.590;11.030;2022-11-28T07:14:01;3.80;99.90
20398;DHT22;10358;49.590;11.030;2022-11-28T07:16:30;3.80;99.90
20398;DHT22;10358;49.590;11.030;2022-11-28T07:18:56;3.80;99.90
20398;DHT22;10358;49.590;11.030;2022-11-28T07:21:22;3.80;99.90
20398;DHT22;10358;49.590;11.030;2022-11-28T07:23:48;3.80;99.90
20398;DHT22;10358;49.590;11.030;2022-11-28T07:26:16;3.80;99.90
20398;DHT22;10358;49.590;11.030;2022-11-28T07:28:43;3.80;99.90
20398;DHT22;10358;49.590;11.030;2022-11-28T07:33:38;3.80;99.90
20398;DHT22;10358;49.590;11.030;2022-11-28T07:36:06;3.90;99.90
20398;DHT22;10358;49.590;11.030;2022-11-28T07:38:32;3.90;99.90
20398;DHT22;10358;49.590;11.030;2022-11-28T07:41:05;4.00;99.90
20398;DHT22;10358;49.590;11.030;2022-11-28T07:43:31;4.00;99.90
20398;DHT22;10358;49.590;11.030;2022-11-28T07:45:57;4.00;99.90
20398;DHT22;10358;49.590;11.030;2022-11-28T07:48:23;4.00;99.90
20398;DHT22;10358;49.590;11.030;2022-11-28T07:50:49;4.10;99.90
20398;DHT22;10358;49.590;11.030;2022-11-28T07:53:14;4.00;99.90
20398;DHT22;10358;49.590;11.030;2022-11-28T07:55:40;4.10;99.90
20398;DHT22;10358;49.590;11.030;2022-11-28T07:58:05;4.10;99.90
20398;DHT22;10358;49.590;11.030;2022-11-28T08:00:31;4.10;99.90
20398;DHT22;10358;49.590;11.030;2022-11-28T08:02:58;4.10;99.90
20398;DHT22;10358;49.590;11.030;2022-11-28T08:05:23;4.10;99.90
20398;DHT22;10358;49.590;11.030;2022-11-28T08:07:49;4.10;99.90
20398;DHT22;10358;49.590;11.030;2022-11-28T08:10:15;4.10;99.90
20398;DHT22;10358;49.590;11.030;2022-11-28T08:12:42;4.20;99.90
20398;DHT22;10358;49.590;11.030;2022-11-28T08:15:07;4.20;99.90
20398;DHT22;10358;49.590;11.030;2022-11-28T08:17:33;4.20;99.90
20398;DHT22;10358;49.590;11.030;2022-11-28T08:19:59;4.30;99.90
20398;DHT22;10358;49.590;11.030;2022-11-28T08:22:25;4.30;99.90
20398;DHT22;10358;49.590;11.030;2022-11-28T08:24:51;4.30;99.90
20398;DHT22;10358;49.590;11.030;2022-11-28T08:27:16;4.40;99.90
20398;DHT22;10358;49.590;11.030;2022-11-28T08:29:42;4.40;99.90
20398;DHT22;10358;49.590;11.030;2022-11-28T08:32:07;4.30;99.90
20398;DHT22;10358;49.590;11.030;2022-11-28T08:34:33;4.30;99.90
20398;DHT22;10358;49.590;11.030;2022-11-28T08:36:58;4.30;99.90
20398;DHT22;10358;49.590;11.030;2022-11-28T08:39:24;4.40;99.90
20398;DHT22;10358;49.590;11.030;2022-11-28T08:41:50;4.50;99.90
20398;DHT22;10358;49.590;11.030;2022-11-28T08:44:15;4.50;99.90
20398;DHT22;10358;49.590;11.030;2022-11-28T08:46:41;4.50;99.90
20398;DHT22;10358;49.590;11.030;2022-11-28T08:49:06;4.50;99.90
20398;DHT22;10358;49.590;11.030;2022-11-28T08:51:32;4.50;99.90
20398;DHT22;10358;49.590;11.030;2022-11-28T08:53:58;4.60;99.90
20398;DHT22;10358;49.590;11.030;2022-11-28T08:56:24;4.60;99.90
20398;DHT22;10358;49.590;11.030;2022-11-28T08:58:49;4.70;99.90
20398;DHT22;10358;49.590;11.030;2022-11-28T09:01:19;4.70;99.90
20398;DHT22;10358;49.590;11.030;2022-11-28T09:03:45;4.70;99.90
20398;DHT22;10358;49.590;11.030;2022-11-28T09:06:11;4.80;99.90
20398;DHT22;10358;49.590;11.030;2022-11-28T09:08:37;4.80;99.90
20398;DHT22;10358;49.590;11.030;2022-11-28T09:11:06;4.80;99.90
20398;DHT22;10358;49.590;11.030;2022-11-28T09:13:32;4.90;99.90
20398;DHT22;10358;49.590;11.030;2022-11-28T09:15:57;4.90;99.90
20398;DHT22;10358;49.590;11.030;2022-11-28T09:18:23;4.90;99.90
20398;DHT22;10358;49.590;11.030;2022-11-28T09:20:48;4.90;99.90
20398;DHT22;10358;49.590;11.030;2022-11-28T09:23:14;5.00;99.90
20398;DHT22;10358;49.590;11.030;2022-11-28T09:25:39;5.00;99.90
20398;DHT22;10358;49.590;11.030;2022-11-28T09:28:05;5.00;99.90
20398;DHT22;10358;49.590;11.030;2022-11-28T09:30:32;5.10;99.90
20398;DHT22;10358;49.590;11.030;2022-11-28T09:32:58;5.10;99.90
20398;DHT22;10358;49.590;11.030;2022-11-28T09:35:23;5.10;99.90
20398;DHT22;10358;49.590;11.030;2022-11-28T09:37:49;5.20;99.90
20398;DHT22;10358;49.590;11.030;2022-11-28T09:40:42;5.20;99.90
20398;DHT22;10358;49.590;11.030;2022-11-28T09:43:30;5.30;99.90
20398;DHT22;10358;49.590;11.030;2022-11-28T09:46:01;5.30;99.90
20398;DHT22;10358;49.590;11.030;2022-11-28T09:48:37;5.30;99.90
20398;DHT22;10358;49.590;11.030;2022-11-28T09:51:29;5.30;99.90
20398;DHT22;10358;49.590;11.030;2022-11-28T09:54:20;5.30;99.90
20398;DHT22;10358;49.590;11.030;2022-11-28T09:56:48;5.40;99.90
20398;DHT22;10358;49.590;11.030;2022-11-28T09:59:26;5.40;99.90
20398;DHT22;10358;49.590;11.030;2022-11-28T10:05:04;5.50;99.90
20398;DHT22;10358;49.590;11.030;2022-11-28T10:23:43;5.80;99.90
20398;DHT22;10358;49.590;11.030;2022-11-28T10:28:55;5.90;99.90
20398;DHT22;10358;49.590;11.030;2022-11-28T10:31:41;5.90;99.90
20398;DHT22;10358;49.590;11.030;2022-11-28T10:36:59;6.00;99.90
20398;DHT22;10358;49.590;11.030;2022-11-28T10:39:26;6.00;99.90
20398;DHT22;10358;49.590;11.030;2022-11-28T10:45:10;6.00;99.90
20398;DHT22;10358;49.590;11.030;2022-11-28T10:50:35;6.00;99.90
20398;DHT22;10358;49.590;11.030;2022-11-28T10:59:05;6.10;99.90
20398;DHT22;10358;49.590;11.030;2022-11-28T11:01:40;6.20;99.90
20398;DHT22;10358;49.590;11.030;2022-11-28T11:04:17;6.30;99.90
20398;DHT22;10358;49.590;11.030;2022-11-28T11:06:52;6.40;99.90
20398;DHT22;10358;49.590;11.030;2022-11-28T11:09:21;6.40;99.90
20398;DHT22;10358;49.590;11.030;2022-11-28T11:11:56;6.40;99.90
20398;DHT22;10358;49.590;11.030;2022-11-28T11:14:33;6.50;99.90
20398;DHT22;10358;49.590;11.030;2022-11-28T11:16:58;6.40;99.90
20398;DHT22;10358;49.590;11.030;2022-11-28T11:19:36;6.40;99.90
20398;DHT22;10358;49.590;11.030;2022-11-28T11:22:27;6.50;99.90
20398;DHT22;10358;49.590;11.030;2022-11-28T11:25:11;6.50;99.90
20398;DHT22;10358;49.590;11.030;2022-11-28T11:27:49;6.40;99.90
20398;DHT22;10358;49.590;11.030;2022-11-28T11:30:30;6.50;99.90
20398;DHT22;10358;49.590;11.030;2022-11-28T11:32:58;6.50;99.90
20398;DHT22;10358;49.590;11.030;2022-11-28T11:35:29;6.40;99.90
20398;DHT22;10358;49.590;11.030;2022-11-28T11:40:45;6.40;99.90
20398;DHT22;10358;49.590;11.030;2022-11-28T11:43:29;6.50;99.90
20398;DHT22;10358;49.590;11.030;2022-11-28T11:46:10;6.50;99.90
20398;DHT22;10358;49.590;11.030;2022-11-28T11:48:46;6.60;99.90
20398;DHT22;10358;49.590;11.030;2022-11-28T11:51:28;6.70;99.90
20398;DHT22;10358;49.590;11.030;2022-11-28T11:54:04;6.70;99.90
20398;DHT22;10358;49.590;11.030;2022-11-28T11:56:37;6.80;99.90
20398;DHT22;10358;49.590;11.030;2022-11-28T11:59:09;6.80;99.90
20398;DHT22;10358;49.590;11.030;2022-11-28T12:01:37;6.90;99.90
20398;DHT22;10358;49.590;11.030;2022-11-28T12:04:06;6.90;99.90
20398;DHT22;10358;49.590;11.030;2022-11-28T12:06:39;6.90;99.90
20398;DHT22;10358;49.590;11.030;2022-11-28T12:09:10;6.90;99.90
20398;DHT22;10358;49.590;11.030;2022-11-28T12:11:40;7.00;99.90
20398;DHT22;10358;49.590;11.030;2022-11-28T12:14:27;7.00;99.90
20398;DHT22;10358;49.590;11.030;2022-11-28T12:22:24;7.00;99.90
20398;DHT22;10358;49.590;11.030;2022-11-28T12:37:51;7.00;99.90
20398;DHT22;10358;49.590;11.030;2022-11-28T12:40:43;7.00;99.90
20398;DHT22;10358;49.590;11.030;2022-11-28T12:46:04;7.10;99.90
20398;DHT22;10358;49.590;11.030;2022-11-28T13:05:21;7.20;99.90
20398;DHT22;10358;49.590;11.030;2022-11-28T13:10:23;7.20;99.90
20398;DHT22;10358;49.590;11.030;2022-11-28T13:12:59;7.20;99.90
20398;DHT22;10358;49.590;11.030;2022-11-28T13:15:53;7.20;99.90
20398;DHT22;10358;49.590;11.030;2022-11-28T13:18:47;7.20;99.90
20398;DHT22;10358;49.590;11.030;2022-11-28T13:24:46;7.10;99.90
20398;DHT22;10358;49.590;11.030;2022-11-28T13:27:09;7.10;99.90
20398;DHT22;10358;49.590;11.030;2022-11-28T13:29:44;7.10;99.90
20398;DHT22;10358;49.590;11.030;2022-11-28T13:32:28;7.10;99.90
20398;DHT22;10358;49.590;11.030;2022-11-28T13:34:55;7.10;99.90
20398;DHT22;10358;49.590;11.030;2022-11-28T13:45:31;7.20;99.90
20398;DHT22;10358;49.590;11.030;2022-11-28T13:47:59;7.10;99.90
20398;DHT22;10358;49.590;11.030;2022-11-28T13:51:02;7.10;99.90
20398;DHT22;10358;49.590;11.030;2022-11-28T13:53:27;7.10;99.90
20398;DHT22;10358;49.590;11.030;2022-11-28T13:58:49;7.00;99.90
20398;DHT22;10358;49.590;11.030;2022-11-28T14:01:19;7.00;99.90
20398;DHT22;10358;49.590;11.030;2022-11-28T14:03:46;7.00;99.90
20398;DHT22;10358;49.590;11.030;2022-11-28T14:06:17;6.90;99.90
20398;DHT22;10358;49.590;11.030;2022-11-28T14:08:45;6.90;99.90
20398;DHT22;10358;49.590;11.030;2022-11-28T14:11:28;6.90;99.90
20398;DHT22;10358;49.590;11.030;2022-11-28T14:19:52;6.80;99.90
20398;DHT22;10358;49.590;11.030;2022-11-28T14:25:31;6.70;99.90
20398;DHT22;10358;49.590;11.030;2022-11-28T14:28:02;6.70;99.90
20398;DHT22;10358;49.590;11.030;2022-11-28T14:30:35;6.60;99.90
20398;DHT22;10358;49.590;11.030;2022-11-28T14:33:14;6.60;99.90
20398;DHT22;10358;49.590;11.030;2022-11-28T14:41:06;6.60;99.90
20398;DHT22;10358;49.590;11.030;2022-11-28T14:43:45;6.60;99.90
20398;DHT22;10358;49.590;11.030;2022-11-28T14:46:16;6.60;99.90
20398;DHT22;10358;49.590;11.030;2022-11-28T14:54:36;6.50;99.90
20398;DHT22;10358;49.590;11.030;2022-11-28T14:57:14;6.50;99.90
20398;DHT22;10358;49.590;11.030;2022-11-28T14:59:41;6.50;99.90
20398;DHT22;10358;49.590;11.030;2022-11-28T15:10:52;6.30;99.90
20398;DHT22;10358;49.590;11.030;2022-11-28T15:16:28;6.30;99.90
20398;DHT22;10358;49.590;11.030;2022-11-28T15:18:58;6.30;99.90
20398;DHT22;10358;49.590;11.030;2022-11-28T15:21:26;6.30;99.90
20398;DHT22;10358;49.590;11.030;2022-11-28T15:23:52;6.30;99.90
20398;DHT22;10358;49.590;11.030;2022-11-28T15:26:29;6.20;99.90
20398;DHT22;10358;49.590;11.030;2022-11-28T15:29:20;6.10;99.90
20398;DHT22;10358;49.590;11.030;2022-11-28T15:31:48;6.10;99.90
20398;DHT22;10358;49.590;11.030;2022-11-28T15:34:34;6.10;99.90
20398;DHT22;10358;49.590;11.030;2022-11-28T15:37:03;6.10;99.90
20398;DHT22;10358;49.590;11.030;2022-11-28T15:39:35;6.00;99.90
20398;DHT22;10358;49.590;11.030;2022-11-28T15:42:07;6.00;99.90
20398;DHT22;10358;49.590;11.030;2022-11-28T15:44:34;6.00;99.90
20398;DHT22;10358;49.590;11.030;2022-11-28T15:47:02;6.00;99.90
20398;DHT22;10358;49.590;11.030;2022-11-28T15:49:34;6.00;99.90
20398;DHT22;10358;49.590;11.030;2022-11-28T15:52:03;5.90;99.90
20398;DHT22;10358;49.590;11.030;2022-11-28T15:56:58;5.90;99.90
20398;DHT22;10358;49.590;11.030;2022-11-28T15:59:24;5.90;99.90
20398;DHT22;10358;49.590;11.030;2022-11-28T16:01:52;5.90;99.90
20398;DHT22;10358;49.590;11.030;2022-11-28T16:04:19;5.80;99.90
20398;DHT22;10358;49.590;11.030;2022-11-28T16:06:49;5.80;99.90
20398;DHT22;10358;49.590;11.030;2022-11-28T16:11:43;5.80;99.90
20398;DHT22;10358;49.590;11.030;2022-11-28T16:14:23;5.80;99.90
20398;DHT22;10358;49.590;11.030;2022-11-28T16:16:49;5.80;99.90
20398;DHT22;10358;49.590;11.030;2022-11-28T16:19:27;5.80;99.90
20398;DHT22;10358;49.590;11.030;2022-11-28T16:22:01;5.70;99.90
20398;DHT22;10358;49.590;11.030;2022-11-28T16:24:48;5.70;99.90
20398;DHT22;10358;49.590;11.030;2022-11-28T16:29:58;5.70;99.90
20398;DHT22;10358;49.590;11.030;2022-11-28T16:32:52;5.70;99.90
20398;DHT22;10358;49.590;11.030;2022-11-28T16:35:32;5.70;99.90
20398;DHT22;10358;49.590;11.030;2022-11-28T16:38:21;5.60;99.90
20398;DHT22;10358;49.590;11.030;2022-11-28T16:40:48;5.60;99.90
20398;DHT22;10358;49.590;11.030;2022-11-28T16:46:01;5.60;99.90
20398;DHT22;10358;49.590;11.030;2022-11-28T16:48:30;5.50;99.90
20398;DHT22;10358;49.590;11.030;2022-11-28T16:53:47;5.50;99.90
20398;DHT22;10358;49.590;11.030;2022-11-28T16:59:12;5.40;99.90
20398;DHT22;10358;49.590;11.030;2022-11-28T17:01:39;5.40;99.90
20398;DHT22;10358;49.590;11.030;2022-11-28T17:04:06;5.40;99.90
20398;DHT22;10358;49.590;11.030;2022-11-28T17:06:42;5.40;99.90
20398;DHT22;10358;49.590;11.030;2022-11-28T17:09:10;5.40;99.90
20398;DHT22;10358;49.590;11.030;2022-11-28T17:11:43;5.40;99.90
20398;DHT22;10358;49.590;11.030;2022-11-28T17:14:11;5.40;99.90
20398;DHT22;10358;49.590;11.030;2022-11-28T17:16:38;5.40;99.90
20398;DHT22;10358;49.590;11.030;2022-11-28T17:19:04;5.40;99.90
20398;DHT22;10358;49.590;11.030;2022-11-28T17:21:42;5.40;99.90
20398;DHT22;10358;49.590;11.030;2022-11-28T17:24:22;5.40;99.90
20398;DHT22;10358;49.590;11.030;2022-11-28T17:26:49;5.40;99.90
20398;DHT22;10358;49.590;11.030;2022-11-28T17:29:15;5.40;99.90
20398;DHT22;10358;49.590;11.030;2022-11-28T17:31:43;5.40;99.90
20398;DHT22;10358;49.590;11.030;2022-11-28T17:34:28;5.40;99.90
20398;DHT22;10358;49.590;11.030;2022-11-28T17:36:58;5.40;99.90
20398;DHT22;10358;49.590;11.030;2022-11-28T17:39:24;5.40;99.90
20398;DHT22;10358;49.590;11.030;2022-11-28T17:41:50;5.30;99.90
20398;DHT22;10358;49.590;11.030;2022-11-28T17:44:19;5.30;99.90
20398;DHT22;10358;49.590;11.030;2022-11-28T17:46:46;5.30;99.90
20398;DHT22;10358;49.590;11.030;2022-11-28T17:49:12;5.20;99.90
20398;DHT22;10358;49.590;11.030;2022-11-28T17:51:38;5.20;99.90
20398;DHT22;10358;49.590;11.030;2022-11-28T17:54:04;5.20;99.90
20398;DHT22;10358;49.590;11.030;2022-11-28T17:56:31;5.30;99.90
20398;DHT22;10358;49.590;11.030;2022-11-28T17:58:57;5.30;99.90
20398;DHT22;10358;49.590;11.030;2022-11-28T18:01:26;5.30;99.90
20398;DHT22;10358;49.590;11.030;2022-11-28T18:03:52;5.30;99.90
20398;DHT22;10358;49.590;11.030;2022-11-28T18:06:18;5.30;99.90
20398;DHT22;10358;49.590;11.030;2022-11-28T18:08:45;5.30;99.90
20398;DHT22;10358;49.590;11.030;2022-11-28T18:11:12;5.30;99.90
20398;DHT22;10358;49.590;11.030;2022-11-28T18:13:39;5.30;99.90
20398;DHT22;10358;49.590;11.030;2022-11-28T18:16:10;5.30;99.90
20398;DHT22;10358;49.590;11.030;2022-11-28T18:18:36;5.20;99.90
20398;DHT22;10358;49.590;11.030;2022-11-28T18:21:02;5.20;99.90
20398;DHT22;10358;49.590;11.030;2022-11-28T18:23:28;5.20;99.90
20398;DHT22;10358;49.590;11.030;2022-11-28T18:25:54;5.20;99.90
20398;DHT22;10358;49.590;11.030;2022-11-28T18:28:19;5.20;99.90
20398;DHT22;10358;49.590;11.030;2022-11-28T18:30:46;5.20;99.90
20398;DHT22;10358;49.590;11.030;2022-11-28T18:33:13;5.20;99.90
20398;DHT22;10358;49.590;11.030;2022-11-28T18:35:39;5.10;99.90
20398;DHT22;10358;49.590;11.030;2022-11-28T18:38:05;5.10;99.90
20398;DHT22;10358;49.590;11.030;2022-11-28T18:40:33;5.10;99.90
20398;DHT22;10358;49.590;11.030;2022-11-28T18:43:01;5.10;99.90
20398;DHT22;10358;49.590;11.030;2022-11-28T18:45:26;5.10;99.90
20398;DHT22;10358;49.590;11.030;2022-11-28T18:47:52;5.10;99.90
20398;DHT22;10358;49.590;11.030;2022-11-28T18:50:18;5.00;99.90
20398;DHT22;10358;49.590;11.030;2022-11-28T18:52:43;5.00;99.90
20398;DHT22;10358;49.590;11.030;2022-11-28T18:55:09;5.00;99.90
20398;DHT22;10358;49.590;11.030;2022-11-28T18:57:35;5.00;99.90